Terminal Aerodrome Forecast
Issued by NWS Melbourne, FL

Home | Current Version | Previous Version | Text Only | Print | Product List | Glossary On
Versions: 1 2 3 4 5 6 7 8 9 10 11 12 13 14 15 16 17 18 19 20 21 22 23
708
FTUS42 KMLB 201120
TAFMCO
TAF
KMCO 201120Z 2012/2112 04009KT P6SM FEW030 SCT080
     FM201400 05013G21KT P6SM FEW025 SCT050
     FM210000 05009KT P6SM FEW025=

USA.gov is the U.S. government's official web portal to all federal, state and local government web resources and services.